Disclaimer

Please do not use the information listed here in-flight or in-navigation, as they are not provided to us by the airports but are provided by volunteers, so they might be outdated.

Search


Regions


Airport information page

Radio informations:
Tower (TWR) - 118.4 MHz
Automatic Terminal Information Service (ATIS) - 248.0 MHz
Approach (APP) - 125.3 MHz

Airport informations:
Latitude: 07° 30' 31.48" N
Longitude: 099° 36' 59.68" E
Elevation: 67 feet - 20 meters
Operating hours: Remarks
Operating agency: Civil government, landing fees and diplomatic clearance may be required
Timezone: UTC+7
Fuel: Jet A1, without icing nhibitor.

Runway information:
08/26 - 6890 x 148 feet< - >2100 x 45 meters

Recent METARs:
VTST 190000Z 35002KT 6000 3000W FEW020 24/23 Q1011 NOSIG
VTST 190000Z 35002KT 6000 3000W FEW020 24/23 Q1011 NOSIG

Airport on the map: